Terminal Aerodrome Forecast
Issued by NWS Springfield, MO

Home | Current Version | Previous Version | Text Only | Print | Product List | Glossary On
Versions: 1 2 3 4 5 6 7 8 9 10 11 12 13 14 15
995
FTUS43 KSGF 250525
TAFSGF
TAF
KSGF 250525Z 2506/2606 16009KT P6SM FEW200
     FM250900 16012KT P6SM SCT250 WS020/20035KT
     FM251400 15017G27KT P6SM BKN250
     FM260000 18013KT P6SM SCT140
     FM260400 17010KT P6SM BKN070=

USA.gov is the U.S. government's official web portal to all federal, state and local government web resources and services.